Time;durP1;ratioP1;P1;durP2;ratioP2;P2;SDS_P1;SDS_P2;PMS_P1;PMS_P2;Temp;Humidity;BMP_temperature;BMP_pressure;BME280_temperature;BME280_humidity;BME280_pressure;Samples;Min_cycle;Max_cycle;Signal;HPM_P1;HPM_P2
2024/04/06 00:01:48;;;;;;;;;7.25;5.00;;;;;;;;5051852;28;8804;-87
2024/04/06 00:04:15;;;;;;;;;3.75;3.75;;;;;;;;5056197;28;8852;-87
2024/04/06 00:06:43;;;;;;;;;4.00;4.00;;;;;;;;5056987;28;8863;-86
2024/04/06 00:09:11;;;;;;;;;4.00;4.00;;;;;;;;5056632;28;8855;-87
2024/04/06 00:11:38;;;;;;;;;4.25;4.25;;;;;;;;5056571;28;8859;-85
2024/04/06 00:14:05;;;;;;;;;5.00;5.00;;;;;;;;5052228;28;8866;-85
2024/04/06 00:16:32;;;;;;;;;4.75;4.75;;;;;;;;5052369;28;8855;-85
2024/04/06 00:18:58;;;;;;;;;3.00;3.00;;;;;;;;5051120;28;8952;-86
2024/04/06 00:21:26;;;;;;;;;4.25;4.25;;;;;;;;5051922;28;8879;-85
2024/04/06 00:23:54;;;;;;;;;1.50;1.50;;;;;;;;5052272;28;8859;-86
2024/04/06 00:26:21;;;;;;;;;4.25;4.25;;;;;;;;5052216;28;8874;-86
2024/04/06 00:28:47;;;;;;;;;4.25;4.25;;;;;;;;5052470;28;8862;-85
2024/04/06 00:31:14;;;;;;;;;3.00;3.00;;;;;;;;5051932;28;8792;-85
2024/04/06 00:33:41;;;;;;;;;4.00;3.75;;;;;;;;5050732;28;8847;-85
2024/04/06 00:36:08;;;;;;;;;4.00;4.00;;;;;;;;5052625;28;8879;-85
2024/04/06 00:38:37;;;;;;;;;3.25;3.25;;;;;;;;5052358;28;8867;-87
2024/04/06 00:41:07;;;;;;;;;1.00;1.00;;;;;;;;5052920;28;8855;-86
2024/04/06 00:43:33;;;;;;;;;4.00;4.00;;;;;;;;5054125;28;8944;-85
2024/04/06 00:46:00;;;;;;;;;4.50;4.50;;;;;;;;5054820;28;8879;-86
2024/04/06 00:48:26;;;;;;;;;3.25;3.00;;;;;;;;5053184;28;8859;-87
2024/04/06 00:50:57;;;;;;;;;3.00;3.00;;;;;;;;5052320;28;8851;-83
2024/04/06 00:53:26;;;;;;;;;4.00;4.00;;;;;;;;5051606;28;8848;-86
2024/04/06 00:55:57;;;;;;;;;4.00;4.00;;;;;;;;5051841;28;8871;-86
2024/04/06 00:58:28;;;;;;;;;5.00;3.50;;;;;;;;5051432;28;8878;-87
2024/04/06 01:00:55;;;;;;;;;3.00;3.00;;;;;;;;5051021;28;8857;-87
2024/04/06 01:03:22;;;;;;;;;3.25;3.25;;;;;;;;5051934;28;8847;-86
2024/04/06 01:05:50;;;;;;;;;3.75;3.75;;;;;;;;5052745;28;8897;-86
2024/04/06 01:08:16;;;;;;;;;4.00;4.00;;;;;;;;5050967;28;8855;-86
2024/04/06 01:10:44;;;;;;;;;4.50;4.50;;;;;;;;5051690;28;8866;-87
2024/04/06 01:13:10;;;;;;;;;3.25;3.25;;;;;;;;5051374;28;8843;-88
2024/04/06 01:15:39;;;;;;;;;4.00;3.75;;;;;;;;5051557;28;8843;-86
2024/04/06 01:18:08;;;;;;;;;5.00;5.00;;;;;;;;5050021;28;8867;-86
2024/04/06 01:20:41;;;;;;;;;3.00;3.00;;;;;;;;5050392;28;8885;-86
2024/04/06 01:23:08;;;;;;;;;3.50;3.50;;;;;;;;5039923;28;8867;-85
2024/04/06 01:25:39;;;;;;;;;3.25;3.25;;;;;;;;5048303;28;9695;-84
2024/04/06 01:28:08;;;;;;;;;3.75;3.75;;;;;;;;5051880;28;8877;-84
2024/04/06 01:30:37;;;;;;;;;3.00;3.00;;;;;;;;5049795;28;8767;-85
2024/04/06 01:33:03;;;;;;;;;5.00;4.00;;;;;;;;5051855;28;8855;-85
2024/04/06 01:35:33;;;;;;;;;3.50;3.50;;;;;;;;5050859;28;8890;-84
2024/04/06 01:38:00;;;;;;;;;3.75;2.50;;;;;;;;5050030;28;8883;-85
2024/04/06 01:40:29;;;;;;;;;2.00;2.00;;;;;;;;5051415;28;9237;-85
2024/04/06 01:42:57;;;;;;;;;3.75;3.75;;;;;;;;5051529;28;8863;-86
2024/04/06 01:45:24;;;;;;;;;3.00;3.00;;;;;;;;5052375;28;8839;-86
2024/04/06 01:47:50;;;;;;;;;3.50;3.50;;;;;;;;5054376;28;8971;-85
2024/04/06 01:50:18;;;;;;;;;5.00;5.00;;;;;;;;5053746;28;8843;-86
2024/04/06 01:52:44;;;;;;;;;3.50;3.50;;;;;;;;5055981;28;8958;-87
2024/04/06 01:55:11;;;;;;;;;3.75;3.75;;;;;;;;5054858;28;8843;-86
2024/04/06 01:57:37;;;;;;;;;4.50;4.50;;;;;;;;5055804;28;8961;-87
2024/04/06 02:00:08;;;;;;;;;4.25;4.25;;;;;;;;5054488;28;8871;-84
2024/04/06 02:02:34;;;;;;;;;4.00;4.00;;;;;;;;5051434;28;8800;-85
2024/04/06 02:05:01;;;;;;;;;5.25;5.25;;;;;;;;5050126;28;8851;-85
2024/04/06 02:07:28;;;;;;;;;5.75;4.25;;;;;;;;5050449;28;9041;-86
2024/04/06 02:09:55;;;;;;;;;6.00;6.00;;;;;;;;5050897;28;8986;-86
2024/04/06 02:12:22;;;;;;;;;5.00;5.00;;;;;;;;5048720;28;8877;-85
2024/04/06 02:14:49;;;;;;;;;5.25;5.25;;;;;;;;5049568;28;8878;-85
2024/04/06 02:17:17;;;;;;;;;4.00;4.00;;;;;;;;5049826;28;8850;-86
2024/04/06 02:19:44;;;;;;;;;5.00;5.00;;;;;;;;5049817;28;8847;-85
2024/04/06 02:22:10;;;;;;;;;5.00;5.00;;;;;;;;5049724;28;8859;-85
2024/04/06 02:24:38;;;;;;;;;5.00;5.00;;;;;;;;5050420;28;8997;-85
2024/04/06 02:27:04;;;;;;;;;4.00;4.00;;;;;;;;5050018;28;8886;-85
2024/04/06 02:29:31;;;;;;;;;3.25;3.25;;;;;;;;5050622;28;8847;-84
2024/04/06 02:31:57;;;;;;;;;4.25;4.25;;;;;;;;5052012;28;8795;-84
2024/04/06 02:34:26;;;;;;;;;5.25;5.25;;;;;;;;5051999;28;8855;-85
2024/04/06 02:36:55;;;;;;;;;3.50;3.50;;;;;;;;5051656;28;8864;-84
2024/04/06 02:39:23;;;;;;;;;4.75;4.75;;;;;;;;5050225;28;8932;-86
2024/04/06 02:41:49;;;;;;;;;3.50;3.50;;;;;;;;5049558;28;9627;-85
2024/04/06 02:44:16;;;;;;;;;4.00;4.00;;;;;;;;5049736;28;8886;-85
2024/04/06 02:46:42;;;;;;;;;5.75;4.75;;;;;;;;5049755;28;8878;-85
2024/04/06 02:49:10;;;;;;;;;5.00;5.00;;;;;;;;5049203;28;8840;-84
2024/04/06 02:51:38;;;;;;;;;5.75;5.75;;;;;;;;5049043;28;8878;-85
2024/04/06 02:54:06;;;;;;;;;3.75;3.75;;;;;;;;5049145;28;8948;-85
2024/04/06 02:56:32;;;;;;;;;4.75;4.75;;;;;;;;5050238;28;8973;-85
2024/04/06 02:58:59;;;;;;;;;7.00;5.75;;;;;;;;5051534;28;8991;-85
2024/04/06 03:01:26;;;;;;;;;5.00;5.00;;;;;;;;5051413;28;8803;-84
2024/04/06 03:03:56;;;;;;;;;3.75;3.75;;;;;;;;5049537;28;8897;-85
2024/04/06 03:06:25;;;;;;;;;4.25;4.25;;;;;;;;5051081;28;8835;-84
2024/04/06 03:08:56;;;;;;;;;6.00;3.75;;;;;;;;5049401;28;8855;-84
2024/04/06 03:11:22;;;;;;;;;4.00;4.00;;;;;;;;5049443;28;8855;-84
2024/04/06 03:13:50;;;;;;;;;5.75;5.00;;;;;;;;5049714;28;8835;-87
2024/04/06 03:16:16;;;;;;;;;4.00;4.00;;;;;;;;5049179;28;9030;-86
2024/04/06 03:18:44;;;;;;;;;4.50;4.50;;;;;;;;5049592;28;8880;-87
2024/04/06 03:21:14;;;;;;;;;4.25;4.25;;;;;;;;5048230;28;8864;-87
2024/04/06 03:23:41;;;;;;;;;4.25;4.25;;;;;;;;5048602;28;8860;-87
2024/04/06 03:26:11;;;;;;;;;4.00;4.00;;;;;;;;5049446;28;8889;-86
2024/04/06 03:28:41;;;;;;;;;4.00;4.00;;;;;;;;5032545;28;8863;-87
2024/04/06 03:31:08;;;;;;;;;3.50;3.50;;;;;;;;5049304;28;8808;-86
2024/04/06 03:33:35;;;;;;;;;5.00;5.00;;;;;;;;5050741;28;8855;-86
2024/04/06 03:36:05;;;;;;;;;3.50;3.50;;;;;;;;5050671;28;8847;-85
2024/04/06 03:38:38;;;;;;;;;5.50;4.75;;;;;;;;5052345;28;8871;-86
2024/04/06 03:41:06;;;;;;;;;4.50;4.50;;;;;;;;5052265;28;8918;-86
2024/04/06 03:43:36;;;;;;;;;3.00;3.00;;;;;;;;5052712;28;8874;-86
2024/04/06 03:46:02;;;;;;;;;4.00;4.00;;;;;;;;5051806;28;8847;-86
2024/04/06 03:48:32;;;;;;;;;4.25;4.25;;;;;;;;5050489;28;8871;-87
2024/04/06 03:50:58;;;;;;;;;5.00;5.00;;;;;;;;5053040;28;8857;-85
2024/04/06 03:53:38;;;;;;;;;4.25;4.25;;;;;;;;5048663;28;9017;-87
2024/04/06 03:56:05;;;;;;;;;4.00;4.00;;;;;;;;5049269;28;8867;-85
2024/04/06 03:58:35;;;;;;;;;5.00;5.00;;;;;;;;5048190;28;8820;-85
2024/04/06 04:01:01;;;;;;;;;4.75;4.75;;;;;;;;5048164;28;8869;-85
2024/04/06 04:03:29;;;;;;;;;4.00;4.00;;;;;;;;5047929;28;8820;-86
2024/04/06 04:05:55;;;;;;;;;4.00;4.00;;;;;;;;5050972;28;8921;-85
2024/04/06 04:08:24;;;;;;;;;5.00;4.00;;;;;;;;5051880;28;8853;-86
2024/04/06 04:10:51;;;;;;;;;4.75;3.75;;;;;;;;5052658;28;8855;-85
2024/04/06 04:13:19;;;;;;;;;4.00;4.00;;;;;;;;5055843;28;8855;-84
2024/04/06 04:15:47;;;;;;;;;5.00;4.00;;;;;;;;5057422;28;8847;-85
2024/04/06 04:18:15;;;;;;;;;6.00;6.00;;;;;;;;5051074;28;8952;-86
2024/04/06 04:20:42;;;;;;;;;6.00;4.00;;;;;;;;5053175;28;8851;-84
2024/04/06 04:23:10;;;;;;;;;3.75;3.75;;;;;;;;5053369;28;8839;-86
2024/04/06 04:25:36;;;;;;;;;3.25;3.25;;;;;;;;5053208;28;8863;-85
2024/04/06 04:28:04;;;;;;;;;3.00;3.00;;;;;;;;5052623;28;8851;-85
2024/04/06 04:30:31;;;;;;;;;5.25;5.25;;;;;;;;5050324;28;8811;-85
2024/04/06 04:32:59;;;;;;;;;2.75;2.75;;;;;;;;5050957;28;8885;-86
2024/04/06 04:35:25;;;;;;;;;4.00;4.00;;;;;;;;5051066;28;8863;-85
2024/04/06 04:37:53;;;;;;;;;0.25;0.25;;;;;;;;5051099;28;8970;-86
2024/04/06 04:40:19;;;;;;;;;3.75;3.75;;;;;;;;5051991;28;9744;-87
2024/04/06 04:42:46;;;;;;;;;2.75;2.75;;;;;;;;5052154;28;8997;-86
2024/04/06 04:45:14;;;;;;;;;3.00;3.00;;;;;;;;5055491;28;8863;-85
2024/04/06 04:47:41;;;;;;;;;6.50;4.25;;;;;;;;5053288;28;8867;-86
2024/04/06 04:50:13;;;;;;;;;4.00;4.00;;;;;;;;5051731;28;8855;-84
2024/04/06 04:52:42;;;;;;;;;3.00;3.00;;;;;;;;5039801;28;8879;-85
2024/04/06 04:55:10;;;;;;;;;3.25;3.25;;;;;;;;5050580;28;8862;-85
2024/04/06 04:57:36;;;;;;;;;2.75;2.75;;;;;;;;5051652;28;8916;-85
2024/04/06 05:00:04;;;;;;;;;2.00;2.00;;;;;;;;5051228;28;8942;-86
2024/04/06 05:02:30;;;;;;;;;3.75;3.75;;;;;;;;5050888;28;8869;-85
2024/04/06 05:04:58;;;;;;;;;3.00;3.00;;;;;;;;5053093;28;8821;-85
2024/04/06 05:07:25;;;;;;;;;2.00;2.00;;;;;;;;5051608;28;8847;-87
2024/04/06 05:09:53;;;;;;;;;4.00;4.00;;;;;;;;5050889;28;8860;-86
2024/04/06 05:12:19;;;;;;;;;4.00;2.00;;;;;;;;5052049;28;8894;-88
2024/04/06 05:14:47;;;;;;;;;3.00;3.00;;;;;;;;5050891;28;8847;-85
2024/04/06 05:17:13;;;;;;;;;2.50;2.00;;;;;;;;5051325;28;8913;-85
2024/04/06 05:19:41;;;;;;;;;3.00;3.00;;;;;;;;5050807;28;8896;-85
2024/04/06 05:22:07;;;;;;;;;2.00;2.00;;;;;;;;5052580;28;8974;-88
2024/04/06 05:24:36;;;;;;;;;2.75;1.50;;;;;;;;5053341;28;8843;-91
2024/04/06 05:27:02;;;;;;;;;2.00;2.00;;;;;;;;5055072;28;8851;-87
2024/04/06 05:29:30;;;;;;;;;2.75;2.50;;;;;;;;5055115;28;8863;-86
2024/04/06 05:31:57;;;;;;;;;3.00;3.00;;;;;;;;5055204;28;8791;-87
2024/04/06 05:34:27;;;;;;;;;2.75;2.00;;;;;;;;5054472;28;8831;-88
2024/04/06 05:36:56;;;;;;;;;1.50;1.50;;;;;;;;5054951;28;8859;-85
2024/04/06 05:39:28;;;;;;;;;2.00;2.00;;;;;;;;5053049;28;8843;-87
2024/04/06 05:41:56;;;;;;;;;2.00;2.00;;;;;;;;5049660;28;8871;-85
2024/04/06 05:44:26;;;;;;;;;2.00;2.00;;;;;;;;5050222;28;8847;-85
2024/04/06 05:46:52;;;;;;;;;1.50;1.50;;;;;;;;5049769;28;9001;-85
2024/04/06 05:49:19;;;;;;;;;1.25;1.25;;;;;;;;5049895;28;8839;-84
2024/04/06 05:51:49;;;;;;;;;1.00;1.00;;;;;;;;5050440;28;8835;-83
2024/04/06 05:54:17;;;;;;;;;2.00;2.00;;;;;;;;5049227;28;8985;-77
2024/04/06 05:56:43;;;;;;;;;2.00;2.00;;;;;;;;5055361;28;8839;-77
2024/04/06 05:59:14;;;;;;;;;1.50;0.75;;;;;;;;5049064;28;8843;-77
2024/04/06 06:01:43;;;;;;;;;2.00;2.00;;;;;;;;5047825;28;8914;-77
2024/04/06 06:04:12;;;;;;;;;1.00;1.00;;;;;;;;5048958;28;8885;-77
2024/04/06 06:06:38;;;;;;;;;1.00;1.00;;;;;;;;5050697;28;8842;-77
2024/04/06 06:09:06;;;;;;;;;1.00;1.00;;;;;;;;5049854;28;8851;-76
2024/04/06 06:11:32;;;;;;;;;1.50;1.50;;;;;;;;5049064;28;8851;-78
2024/04/06 06:13:59;;;;;;;;;1.25;1.25;;;;;;;;5050558;28;8937;-76
2024/04/06 06:16:27;;;;;;;;;1.00;1.00;;;;;;;;5048298;28;8874;-75
2024/04/06 06:19:01;;;;;;;;;1.25;1.25;;;;;;;;5047856;28;8929;-75
2024/04/06 06:21:27;;;;;;;;;1.00;1.00;;;;;;;;5047774;28;8863;-75
2024/04/06 06:23:55;;;;;;;;;1.00;1.00;;;;;;;;5048134;28;8885;-75
2024/04/06 06:26:21;;;;;;;;;1.00;1.00;;;;;;;;5047495;28;8906;-76
2024/04/06 06:28:49;;;;;;;;;1.50;1.00;;;;;;;;5046588;28;8831;-75
2024/04/06 06:31:15;;;;;;;;;1.00;1.00;;;;;;;;5046727;28;9725;-76
2024/04/06 06:33:44;;;;;;;;;0.50;0.50;;;;;;;;5048173;28;8897;-74
2024/04/06 06:36:14;;;;;;;;;1.00;1.00;;;;;;;;5047114;28;8973;-75
2024/04/06 06:38:41;;;;;;;;;0.00;0.00;;;;;;;;5052665;28;8835;-76
2024/04/06 06:41:07;;;;;;;;;1.00;1.00;;;;;;;;5050994;28;8851;-76
2024/04/06 06:43:35;;;;;;;;;1.50;0.00;;;;;;;;5047408;28;8869;-74
2024/04/06 06:46:01;;;;;;;;;1.00;1.00;;;;;;;;5046823;28;9474;-76
2024/04/06 06:48:28;;;;;;;;;1.00;1.00;;;;;;;;5047823;28;8836;-74
2024/04/06 06:50:56;;;;;;;;;1.00;1.00;;;;;;;;5047666;28;8924;-77
2024/04/06 06:53:26;;;;;;;;;2.00;2.00;;;;;;;;5047572;28;8897;-77
2024/04/06 06:55:54;;;;;;;;;1.25;1.25;;;;;;;;5047201;28;8879;-75
2024/04/06 06:58:21;;;;;;;;;2.00;1.00;;;;;;;;5047628;28;8851;-75
2024/04/06 07:00:48;;;;;;;;;1.25;1.25;;;;;;;;5037209;28;8776;-77
2024/04/06 07:03:15;;;;;;;;;1.00;1.00;;;;;;;;5047518;28;8858;-78
2024/04/06 07:05:43;;;;;;;;;0.50;0.50;;;;;;;;5050865;28;8843;-76
2024/04/06 07:08:15;;;;;;;;;0.75;0.75;;;;;;;;5049598;28;8839;-76
2024/04/06 07:10:44;;;;;;;;;0.75;0.75;;;;;;;;5049902;28;8874;-77
2024/04/06 07:13:14;;;;;;;;;2.00;1.00;;;;;;;;5050600;28;8919;-76
2024/04/06 07:15:41;;;;;;;;;0.25;0.25;;;;;;;;5049619;28;8863;-76
2024/04/06 07:18:07;;;;;;;;;0.00;0.00;;;;;;;;5050743;28;8835;-77
2024/04/06 07:20:35;;;;;;;;;0.75;0.75;;;;;;;;5051470;28;8882;-75
2024/04/06 07:23:01;;;;;;;;;1.00;1.00;;;;;;;;5050381;28;8882;-76
2024/04/06 07:25:30;;;;;;;;;0.25;0.25;;;;;;;;5049518;28;8835;-79
2024/04/06 07:27:58;;;;;;;;;0.50;0.50;;;;;;;;5047410;28;9657;-77
2024/04/06 07:30:25;;;;;;;;;0.00;0.00;;;;;;;;5047146;28;9452;-77
2024/04/06 07:32:51;;;;;;;;;1.00;1.00;;;;;;;;5047255;28;8874;-77
2024/04/06 07:35:19;;;;;;;;;0.00;0.00;;;;;;;;5047494;28;8843;-77
2024/04/06 07:37:45;;;;;;;;;0.25;0.25;;;;;;;;5046514;28;8916;-77
2024/04/06 07:40:14;;;;;;;;;1.50;0.50;;;;;;;;5047870;28;8843;-76
2024/04/06 07:42:46;;;;;;;;;0.00;0.00;;;;;;;;5049501;28;8993;-77
2024/04/06 07:45:19;;;;;;;;;0.50;0.50;;;;;;;;5051525;28;8859;-76
2024/04/06 07:47:45;;;;;;;;;0.50;0.50;;;;;;;;5039699;28;8851;-78
2024/04/06 07:50:12;;;;;;;;;1.00;1.00;;;;;;;;5049987;28;8954;-77
2024/04/06 07:52:38;;;;;;;;;0.00;0.00;;;;;;;;5051722;28;8843;-76
2024/04/06 07:55:09;;;;;;;;;0.25;0.25;;;;;;;;5051420;28;8874;-77
2024/04/06 07:57:35;;;;;;;;;0.00;0.00;;;;;;;;5051884;28;9009;-77
2024/04/06 08:00:04;;;;;;;;;0.75;0.75;;;;;;;;5052121;28;8847;-79
2024/04/06 08:02:31;;;;;;;;;0.20;0.20;;;;;;;;5050785;28;8823;-77
2024/04/06 08:04:58;;;;;;;;;2.20;0.00;;;;;;;;5052685;28;8816;-77
2024/04/06 08:07:25;;;;;;;;;2.00;0.00;;;;;;;;5050910;28;8990;-78
2024/04/06 08:09:59;;;;;;;;;2.00;0.60;;;;;;;;5048950;28;9332;-75
2024/04/06 08:12:26;;;;;;;;;0.40;0.40;;;;;;;;5050476;28;8905;-75
2024/04/06 08:14:56;;;;;;;;;0.40;0.40;;;;;;;;5050237;28;8962;-75
2024/04/06 08:17:24;;;;;;;;;0.80;0.00;;;;;;;;5050613;28;8985;-77
2024/04/06 08:19:51;;;;;;;;;0.00;0.00;;;;;;;;5049780;28;8866;-76
2024/04/06 08:22:17;;;;;;;;;1.00;1.00;;;;;;;;5050426;28;8962;-74
2024/04/06 08:24:45;;;;;;;;;1.00;1.00;;;;;;;;5050036;28;8966;-74
2024/04/06 08:27:11;;;;;;;;;1.20;1.20;;;;;;;;5050589;28;8851;-75
2024/04/06 08:29:38;;;;;;;;;0.00;0.00;;;;;;;;5049547;28;8869;-75
2024/04/06 08:32:04;;;;;;;;;0.00;0.00;;;;;;;;5050062;28;8807;-76
2024/04/06 08:34:33;;;;;;;;;1.20;0.20;;;;;;;;5050017;28;8859;-76
2024/04/06 08:36:59;;;;;;;;;0.20;0.20;;;;;;;;5050311;28;8936;-72
2024/04/06 08:39:28;;;;;;;;;0.00;0.00;;;;;;;;5049448;28;9626;-74
2024/04/06 08:41:57;;;;;;;;;0.00;0.00;;;;;;;;5049793;28;8881;-75
2024/04/06 08:44:37;;;;;;;;;0.20;0.20;;;;;;;;5048805;28;9617;-76
2024/04/06 08:47:05;;;;;;;;;1.60;0.00;;;;;;;;5049892;28;8855;-72
2024/04/06 08:49:33;;;;;;;;;0.00;0.00;;;;;;;;5049721;28;8843;-75
2024/04/06 08:52:01;;;;;;;;;1.80;0.00;;;;;;;;5050082;28;8811;-75
2024/04/06 08:54:28;;;;;;;;;0.20;0.20;;;;;;;;5049916;28;8843;-77
2024/04/06 08:56:57;;;;;;;;;0.00;0.00;;;;;;;;5050286;28;8858;-72
2024/04/06 08:59:24;;;;;;;;;0.00;0.00;;;;;;;;5052449;28;8914;-75
2024/04/06 09:01:51;;;;;;;;;0.00;0.00;;;;;;;;5051662;28;8921;-75
2024/04/06 09:04:18;;;;;;;;;0.00;0.00;;;;;;;;5053479;28;9292;-75
2024/04/06 09:06:47;;;;;;;;;0.00;0.00;;;;;;;;5054838;28;8875;-75
2024/04/06 09:09:13;;;;;;;;;0.40;0.40;;;;;;;;5053111;28;8973;-74
2024/04/06 09:11:42;;;;;;;;;0.60;0.60;;;;;;;;5050739;28;8846;-74
2024/04/06 09:14:10;;;;;;;;;0.40;0.40;;;;;;;;5050567;28;8865;-76
2024/04/06 09:16:43;;;;;;;;;0.80;0.80;;;;;;;;5050042;28;8877;-75
2024/04/06 09:19:10;;;;;;;;;0.20;0.20;;;;;;;;5051583;28;8859;-78
2024/04/06 09:21:37;;;;;;;;;0.20;0.20;;;;;;;;5049521;28;8902;-76
2024/04/06 09:24:06;;;;;;;;;2.00;0.00;;;;;;;;5049588;28;8936;-75
2024/04/06 09:26:36;;;;;;;;;1.00;1.00;;;;;;;;5048215;28;8970;-80
2024/04/06 09:29:02;;;;;;;;;0.00;0.00;;;;;;;;5049597;28;8858;-76
2024/04/06 09:31:30;;;;;;;;;0.00;0.00;;;;;;;;5048024;28;8807;-80
2024/04/06 09:33:58;;;;;;;;;0.00;0.00;;;;;;;;5049183;28;8879;-78
2024/04/06 09:36:25;;;;;;;;;0.00;0.00;;;;;;;;5049114;28;8847;-80
2024/04/06 09:38:55;;;;;;;;;0.00;0.00;;;;;;;;5049278;28;8867;-75
2024/04/06 09:41:26;;;;;;;;;0.00;0.00;;;;;;;;5050814;28;8839;-78
2024/04/06 09:43:54;;;;;;;;;0.00;0.00;;;;;;;;5050587;28;8862;-77
2024/04/06 09:46:21;;;;;;;;;0.00;0.00;;;;;;;;5050712;28;8917;-75
2024/04/06 09:48:48;;;;;;;;;0.00;0.00;;;;;;;;5048373;28;8851;-76
2024/04/06 09:51:18;;;;;;;;;0.00;0.00;;;;;;;;5049434;28;8842;-77
2024/04/06 09:53:44;;;;;;;;;0.00;0.00;;;;;;;;5048999;28;8970;-78
2024/04/06 09:56:13;;;;;;;;;0.00;0.00;;;;;;;;5048783;28;8839;-76
2024/04/06 09:58:48;;;;;;;;;0.00;0.00;;;;;;;;5047843;28;8908;-78
2024/04/06 10:01:19;;;;;;;;;0.00;0.00;;;;;;;;5048233;28;8787;-76
2024/04/06 10:03:47;;;;;;;;;0.00;0.00;;;;;;;;5047830;28;9002;-78
2024/04/06 10:06:19;;;;;;;;;0.00;0.00;;;;;;;;5050939;28;8835;-77
2024/04/06 10:08:47;;;;;;;;;0.00;0.00;;;;;;;;5047655;28;9006;-77
2024/04/06 10:11:17;;;;;;;;;0.40;0.40;;;;;;;;5048353;28;9614;-77
2024/04/06 10:13:53;;;;;;;;;0.40;0.00;;;;;;;;5048527;28;8977;-76
2024/04/06 10:16:22;;;;;;;;;0.00;0.00;;;;;;;;5048189;28;9919;-76
2024/04/06 10:18:48;;;;;;;;;1.00;1.00;;;;;;;;5048151;28;8855;-78
2024/04/06 10:21:17;;;;;;;;;0.80;0.80;;;;;;;;5048210;28;9575;-76
2024/04/06 10:23:46;;;;;;;;;0.00;0.00;;;;;;;;5048528;28;9628;-76
2024/04/06 10:26:15;;;;;;;;;0.00;0.00;;;;;;;;5048061;28;9016;-77
2024/04/06 10:28:42;;;;;;;;;0.40;0.00;;;;;;;;5047318;28;8873;-77
2024/04/06 10:31:11;;;;;;;;;2.80;0.60;;;;;;;;5046885;28;8913;-78
2024/04/06 10:33:38;;;;;;;;;0.00;0.00;;;;;;;;5048210;28;8863;-78
2024/04/06 10:36:09;;;;;;;;;0.40;0.00;;;;;;;;5047874;28;9581;-76
2024/04/06 10:38:37;;;;;;;;;1.80;1.80;;;;;;;;5048017;28;8859;-77
2024/04/06 10:41:06;;;;;;;;;0.00;0.00;;;;;;;;5047670;28;8847;-77
2024/04/06 10:43:35;;;;;;;;;0.20;0.20;;;;;;;;5048326;28;8870;-76
2024/04/06 10:46:04;;;;;;;;;0.00;0.00;;;;;;;;5049813;28;8851;-76
2024/04/06 10:48:38;;;;;;;;;1.80;1.80;;;;;;;;5049009;28;8965;-77
2024/04/06 10:51:08;;;;;;;;;0.80;0.80;;;;;;;;5049984;28;8867;-77
2024/04/06 10:53:34;;;;;;;;;0.20;0.20;;;;;;;;5050785;28;8859;-78
2024/04/06 10:56:04;;;;;;;;;0.00;0.00;;;;;;;;5049524;28;9673;-77
2024/04/06 10:58:33;;;;;;;;;0.20;0.20;;;;;;;;5047347;28;8930;-77
2024/04/06 11:01:09;;;;;;;;;0.00;0.00;;;;;;;;5047303;28;8784;-76
2024/04/06 11:03:38;;;;;;;;;0.80;0.80;;;;;;;;5046920;28;8851;-76
2024/04/06 11:06:06;;;;;;;;;0.60;0.60;;;;;;;;5049075;28;8858;-78
2024/04/06 11:08:32;;;;;;;;;0.00;0.00;;;;;;;;5046624;28;8855;-78
2024/04/06 11:11:00;;;;;;;;;1.00;1.00;;;;;;;;5047884;28;8940;-77
2024/04/06 11:13:26;;;;;;;;;0.00;0.00;;;;;;;;5046960;28;8847;-78
2024/04/06 11:15:56;;;;;;;;;0.00;0.00;;;;;;;;5046888;28;9017;-78
2024/04/06 11:18:25;;;;;;;;;0.00;0.00;;;;;;;;5047017;28;8839;-76
2024/04/06 11:20:56;;;;;;;;;0.80;0.80;;;;;;;;5047846;28;8861;-76
2024/04/06 11:23:26;;;;;;;;;0.00;0.00;;;;;;;;5049547;28;8867;-76
2024/04/06 11:25:55;;;;;;;;;0.80;0.80;;;;;;;;5049276;28;8843;-78
2024/04/06 11:28:22;;;;;;;;;0.80;0.80;;;;;;;;5049669;28;8863;-80
2024/04/06 11:30:53;;;;;;;;;0.20;0.20;;;;;;;;5047698;28;8791;-76
2024/04/06 11:33:19;;;;;;;;;0.00;0.00;;;;;;;;5037144;28;8885;-77
2024/04/06 11:36:07;;;;;;;;;0.80;0.80;;;;;;;;5047088;28;8843;-75
2024/04/06 11:38:34;;;;;;;;;0.00;0.00;;;;;;;;5046931;28;8839;-76
2024/04/06 11:41:01;;;;;;;;;1.40;0.20;;;;;;;;5046932;28;8835;-77
2024/04/06 11:43:27;;;;;;;;;0.00;0.00;;;;;;;;5046844;28;8889;-77
2024/04/06 11:45:54;;;;;;;;;0.00;0.00;;;;;;;;5046282;28;8847;-76
2024/04/06 11:48:22;;;;;;;;;0.00;0.00;;;;;;;;5047279;28;8981;-75
2024/04/06 11:50:49;;;;;;;;;0.80;0.80;;;;;;;;5046546;28;8960;-76
2024/04/06 11:53:17;;;;;;;;;1.00;0.20;;;;;;;;5047458;28;8835;-76
2024/04/06 11:55:44;;;;;;;;;2.00;1.00;;;;;;;;5046763;28;8843;-76
2024/04/06 11:58:10;;;;;;;;;0.00;0.00;;;;;;;;5046775;28;8867;-76
2024/04/06 12:00:38;;;;;;;;;0.00;0.00;;;;;;;;5045634;28;9572;-75
2024/04/06 12:03:05;;;;;;;;;0.00;0.00;;;;;;;;5046887;28;9614;-75
2024/04/06 12:05:33;;;;;;;;;0.80;0.80;;;;;;;;5048948;28;8855;-76
2024/04/06 12:08:00;;;;;;;;;1.80;0.00;;;;;;;;5046455;28;9009;-76
2024/04/06 12:10:28;;;;;;;;;0.00;0.00;;;;;;;;5047014;28;9626;-76
2024/04/06 12:12:54;;;;;;;;;0.00;0.00;;;;;;;;5046224;28;8854;-75
2024/04/06 12:15:23;;;;;;;;;0.20;0.20;;;;;;;;5046949;28;8994;-76
2024/04/06 12:17:50;;;;;;;;;0.00;0.00;;;;;;;;5046316;28;8885;-76
2024/04/06 12:20:17;;;;;;;;;0.00;0.00;;;;;;;;5047373;28;8843;-76
2024/04/06 12:22:43;;;;;;;;;0.00;0.00;;;;;;;;5046712;28;8874;-76
2024/04/06 12:25:10;;;;;;;;;0.00;0.00;;;;;;;;5047479;28;9006;-76
2024/04/06 12:27:38;;;;;;;;;0.00;0.00;;;;;;;;5046841;28;8877;-76
2024/04/06 12:30:11;;;;;;;;;0.00;0.00;;;;;;;;5050561;28;8861;-76
2024/04/06 12:32:38;;;;;;;;;0.40;0.40;;;;;;;;5050546;28;8851;-75
2024/04/06 12:35:05;;;;;;;;;0.20;0.20;;;;;;;;5052079;28;8885;-76
2024/04/06 12:37:32;;;;;;;;;0.00;0.00;;;;;;;;5052245;28;9014;-76
2024/04/06 12:39:59;;;;;;;;;0.00;0.00;;;;;;;;5051822;28;8839;-76
2024/04/06 12:42:25;;;;;;;;;1.00;0.00;;;;;;;;5050233;28;8859;-76
2024/04/06 12:44:56;;;;;;;;;0.00;0.00;;;;;;;;5049938;28;8932;-76
2024/04/06 12:47:26;;;;;;;;;0.20;0.20;;;;;;;;5050403;28;8859;-76
2024/04/06 12:49:54;;;;;;;;;0.20;0.20;;;;;;;;5049843;28;8870;-76
2024/04/06 12:52:21;;;;;;;;;0.00;0.00;;;;;;;;5047439;28;8855;-76
2024/04/06 12:54:49;;;;;;;;;0.00;0.00;;;;;;;;5050044;28;8880;-76
2024/04/06 13:00:07;;;;;;;;;0.40;0.40;;;;;;;;5046629;28;8843;-76
2024/04/06 13:02:34;;;;;;;;;0.20;0.00;;;;;;;;5049382;28;8820;-76
2024/04/06 13:05:01;;;;;;;;;0.00;0.00;;;;;;;;5051417;28;8871;-76
2024/04/06 13:07:27;;;;;;;;;2.00;0.60;;;;;;;;5050014;28;8885;-75
2024/04/06 13:10:00;;;;;;;;;0.00;0.00;;;;;;;;5049845;28;8843;-75
2024/04/06 13:12:30;;;;;;;;;0.00;0.00;;;;;;;;5051467;28;8862;-77
2024/04/06 13:15:01;;;;;;;;;0.80;0.00;;;;;;;;5050576;28;8929;-76
2024/04/06 13:17:28;;;;;;;;;0.00;0.00;;;;;;;;5049710;28;9683;-76
2024/04/06 13:19:56;;;;;;;;;1.00;0.00;;;;;;;;5049007;28;8835;-75
2024/04/06 13:22:25;;;;;;;;;0.00;0.00;;;;;;;;5049540;28;8847;-75
2024/04/06 13:24:56;;;;;;;;;0.00;0.00;;;;;;;;5049251;28;8940;-76
2024/04/06 13:27:25;;;;;;;;;0.00;0.00;;;;;;;;5049336;28;8851;-76
2024/04/06 13:29:55;;;;;;;;;0.00;0.00;;;;;;;;5048997;28;8863;-76
2024/04/06 13:32:21;;;;;;;;;0.00;0.00;;;;;;;;5048413;28;8873;-75
2024/04/06 13:34:56;;;;;;;;;0.00;0.00;;;;;;;;5048804;28;8973;-76
2024/04/06 13:37:26;;;;;;;;;0.60;0.40;;;;;;;;5049742;28;8870;-76
2024/04/06 13:39:54;;;;;;;;;0.80;0.00;;;;;;;;5052496;28;9630;-76
2024/04/06 13:42:20;;;;;;;;;0.40;0.00;;;;;;;;5049172;28;8867;-76
2024/04/06 13:44:47;;;;;;;;;0.00;0.00;;;;;;;;5048756;28;8970;-76
2024/04/06 13:47:14;;;;;;;;;0.40;0.40;;;;;;;;5048716;28;8859;-76
2024/04/06 13:49:42;;;;;;;;;0.00;0.00;;;;;;;;5049102;28;8990;-76
2024/04/06 13:52:14;;;;;;;;;0.00;0.00;;;;;;;;5048622;28;9006;-76
2024/04/06 13:54:43;;;;;;;;;0.00;0.00;;;;;;;;5048371;28;8939;-75
2024/04/06 13:57:10;;;;;;;;;0.00;0.00;;;;;;;;5048704;28;8855;-76
2024/04/06 13:59:37;;;;;;;;;0.00;0.00;;;;;;;;5048444;28;8855;-76
2024/04/06 14:02:04;;;;;;;;;1.40;0.00;;;;;;;;5048058;28;8776;-76
2024/04/06 14:04:30;;;;;;;;;2.00;0.00;;;;;;;;5050056;28;8875;-76
2024/04/06 14:06:58;;;;;;;;;0.00;0.00;;;;;;;;5051021;28;8851;-76
2024/04/06 14:09:25;;;;;;;;;0.00;0.00;;;;;;;;5050778;28;8855;-76
2024/04/06 14:11:53;;;;;;;;;1.40;0.60;;;;;;;;5048085;28;8957;-76
2024/04/06 14:14:22;;;;;;;;;0.00;0.00;;;;;;;;5050481;28;8859;-77
2024/04/06 14:16:50;;;;;;;;;1.00;0.00;;;;;;;;5048987;28;8866;-76
2024/04/06 14:19:21;;;;;;;;;0.00;0.00;;;;;;;;5050766;28;8970;-76
2024/04/06 14:21:48;;;;;;;;;0.00;0.00;;;;;;;;5049308;28;8847;-75
2024/04/06 14:24:14;;;;;;;;;0.00;0.00;;;;;;;;5050944;28;8855;-75
2024/04/06 14:26:43;;;;;;;;;1.00;0.00;;;;;;;;5048404;28;8863;-75
2024/04/06 14:29:10;;;;;;;;;0.00;0.00;;;;;;;;5048533;28;8839;-76
2024/04/06 14:31:37;;;;;;;;;1.60;0.00;;;;;;;;5047374;28;9609;-76
2024/04/06 14:34:03;;;;;;;;;0.00;0.00;;;;;;;;5047872;28;8847;-76
2024/04/06 14:36:31;;;;;;;;;0.00;0.00;;;;;;;;5048236;28;8944;-76
2024/04/06 14:38:57;;;;;;;;;1.60;0.00;;;;;;;;5048152;28;8855;-77
2024/04/06 14:41:27;;;;;;;;;0.20;0.20;;;;;;;;5047863;28;8859;-75
2024/04/06 14:43:55;;;;;;;;;1.80;0.00;;;;;;;;5046958;28;8883;-76
2024/04/06 14:46:25;;;;;;;;;1.00;0.20;;;;;;;;5048146;28;8937;-76
2024/04/06 14:48:51;;;;;;;;;0.00;0.00;;;;;;;;5047258;28;8847;-76
2024/04/06 14:51:19;;;;;;;;;0.40;0.00;;;;;;;;5047806;28;8958;-76
2024/04/06 14:53:45;;;;;;;;;0.00;0.00;;;;;;;;5046985;28;8851;-77
2024/04/06 14:56:12;;;;;;;;;0.40;0.40;;;;;;;;5049311;28;8989;-76
2024/04/06 14:58:38;;;;;;;;;0.60;0.00;;;;;;;;5048548;28;8852;-76
2024/04/06 15:01:12;;;;;;;;;0.00;0.00;;;;;;;;5047604;28;8806;-76
2024/04/06 15:03:38;;;;;;;;;1.60;0.80;;;;;;;;5046572;28;8859;-76
2024/04/06 15:06:06;;;;;;;;;1.20;0.00;;;;;;;;5049604;28;9622;-76